Charles, North Carolina
Current Conditions -  °F | °C
As of 9:35 PM on Thursday 20 Nov 2014 (Local Time) from KSVH Reporting Station
Clear Clear  
Wind Chill: 44°   Ceiling: Unl
Heat Index: 44°   Visibility: 10mi
Dew Point: 19°   Wind: 3mph
Humidity: 38%   Direction: 220°SW
Pressure: 30.1"   Gusts: NA
Location:  35.8306°N, 80.9003°W
Report Text: KSVH 210235Z AUTO 22003KT 10SM CLR 07/M07 A3010 RMK AO2 T00661070
Loading
Personal Weather Stations






























Interactive Weather Map New forecast layout! Learn more

10-Day Weather Forecast

Advertisements
Track Severe Weather on mobile